Time;durP1;ratioP1;P1;durP2;ratioP2;P2;SDS_P1;SDS_P2;PMS_P1;PMS_P2;Temp;Humidity;BMP_temperature;BMP_pressure;BME280_temperature;BME280_humidity;BME280_pressure;Samples;Min_cycle;Max_cycle;Signal;HPM_P1;HPM_P2
2022/08/24 00:01:19;;;;;;;7.28;1.50;;;22.10;72.50;;;;;;5032300;28;20035;-78
2022/08/24 00:03:45;;;;;;;3.83;1.45;;;22.10;72.40;;;;;;5017413;28;20064;-79
2022/08/24 00:06:18;;;;;;;4.63;1.70;;;22.10;72.80;;;;;;5015818;28;20520;-80
2022/08/24 00:08:48;;;;;;;3.72;2.00;;;22.10;72.60;;;;;;5051000;28;20032;-79
2022/08/24 00:11:14;;;;;;;5.03;1.80;;;22.10;72.80;;;;;;5052484;28;20031;-77
2022/08/24 00:13:40;;;;;;;4.03;1.50;;;22.00;72.90;;;;;;5032982;28;20232;-77
2022/08/24 00:16:08;;;;;;;4.05;1.85;;;22.00;73.20;;;;;;5021497;28;20053;-80
2022/08/24 00:18:34;;;;;;;4.65;1.77;;;22.00;73.20;;;;;;5037789;28;20084;-79
2022/08/24 00:21:01;;;;;;;4.28;1.90;;;22.00;73.30;;;;;;5038824;28;20594;-77
2022/08/24 00:23:27;;;;;;;5.05;1.40;;;21.90;73.60;;;;;;5023700;28;20029;-78
2022/08/24 00:25:53;;;;;;;2.97;1.63;;;21.90;73.70;;;;;;5036810;28;20036;-78
2022/08/24 00:28:19;;;;;;;5.05;2.10;;;21.90;73.70;;;;;;5036770;28;20030;-79
2022/08/24 00:30:44;;;;;;;4.60;1.98;;;21.80;73.40;;;;;;5038587;28;20036;-77
2022/08/24 00:33:10;;;;;;;3.15;1.73;;;21.80;73.80;;;;;;5043382;28;20552;-78
2022/08/24 00:35:36;;;;;;;6.03;1.65;;;21.80;73.90;;;;;;5036983;28;20028;-79
2022/08/24 00:38:02;;;;;;;3.58;1.95;;;21.80;74.10;;;;;;5037400;28;20462;-79
2022/08/24 00:40:34;;;;;;;4.78;2.17;;;21.80;74.50;;;;;;5032448;28;20029;-78
2022/08/24 00:43:03;;;;;;;3.95;1.77;;;21.70;74.50;;;;;;5018844;28;20091;-79
2022/08/24 00:45:50;;;;;;;6.40;1.60;;;21.70;74.50;;;;;;5032725;28;20063;-78
2022/08/24 00:48:26;;;;;;;3.03;1.40;;;21.70;74.90;;;;;;5032200;28;20093;-79
2022/08/24 00:51:13;;;;;;;5.85;1.88;;;21.60;75.00;;;;;;5036672;28;20051;-79
2022/08/24 00:53:49;;;;;;;4.45;1.45;;;21.70;75.30;;;;;;5020448;28;20075;-79
2022/08/24 00:56:29;;;;;;;4.80;1.70;;;21.60;75.30;;;;;;5039970;28;20029;-79
2022/08/24 00:59:01;;;;;;;4.40;1.52;;;21.60;75.40;;;;;;5059901;28;20033;-78
2022/08/24 01:01:28;;;;;;;2.92;1.38;;;21.60;75.50;;;;;;5019166;28;20112;-78
2022/08/24 01:03:55;;;;;;;4.30;1.80;;;21.60;75.70;;;;;;5056952;28;20057;-78
2022/08/24 01:06:21;;;;;;;6.22;1.75;;;21.50;76.10;;;;;;5038402;28;20082;-78
2022/08/24 01:08:47;;;;;;;5.57;1.88;;;21.50;76.10;;;;;;5026015;28;20029;-79
2022/08/24 01:11:21;;;;;;;5.95;2.10;;;21.50;76.30;;;;;;5041905;28;20038;-77
2022/08/24 01:13:49;;;;;;;4.15;1.65;;;21.50;76.20;;;;;;5038524;28;20029;-78
2022/08/24 01:18:48;;;;;;;4.38;1.50;;;21.50;76.70;;;;;;5054810;28;20025;-79
2022/08/24 01:19:10;;;;;;;4.63;1.83;;;21.40;77.30;;;;;;5048545;28;20041;-77
2022/08/24 01:21:53;;;;;;;4.68;1.73;;;21.40;77.00;;;;;;5072827;28;20044;-78
2022/08/24 01:24:18;;;;;;;3.92;1.60;;;21.40;77.60;;;;;;5049250;28;20017;-77
2022/08/24 01:26:48;;;;;;;3.78;1.75;;;21.30;77.60;;;;;;5065891;28;20040;-78
2022/08/24 01:29:27;;;;;;;4.57;1.63;;;21.40;78.00;;;;;;5068843;28;20021;-77
2022/08/24 01:31:53;;;;;;;3.10;1.60;;;21.30;78.20;;;;;;5054007;28;20095;-76
2022/08/24 01:34:20;;;;;;;3.70;1.80;;;21.30;78.60;;;;;;5068739;28;20065;-78
2022/08/24 01:36:49;;;;;;;4.15;1.70;;;21.30;78.90;;;;;;5061403;28;20055;-76
2022/08/24 01:39:23;;;;;;;2.83;1.60;;;21.20;79.10;;;;;;5044089;28;20048;-78
2022/08/24 01:41:50;;;;;;;5.57;2.45;;;21.20;79.30;;;;;;5055164;28;20029;-78
2022/08/24 01:44:17;;;;;;;4.45;1.85;;;21.20;79.40;;;;;;5022458;28;20477;-77
2022/08/24 01:46:48;;;;;;;4.43;1.98;;;21.20;80.00;;;;;;5035700;28;20036;-77
2022/08/24 01:49:15;;;;;;;5.63;2.00;;;21.20;80.60;;;;;;5053945;28;20113;-78
2022/08/24 01:51:41;;;;;;;4.63;1.90;;;21.10;80.80;;;;;;5033634;28;20064;-79
2022/08/24 01:54:08;;;;;;;6.20;1.90;;;21.10;80.90;;;;;;5055269;28;20078;-77
2022/08/24 01:56:35;;;;;;;4.38;1.92;;;21.10;81.10;;;;;;5054952;28;20021;-80
2022/08/24 01:59:02;;;;;;;5.53;1.90;;;21.10;81.40;;;;;;5037880;28;20025;-78
2022/08/24 02:01:30;;;;;;;5.07;1.83;;;21.10;81.60;;;;;;5036942;28;20032;-79
2022/08/24 02:03:59;;;;;;;5.32;1.90;;;21.10;81.90;;;;;;5020150;28;20029;-77
2022/08/24 02:06:26;;;;;;;4.55;2.17;;;21.10;82.20;;;;;;5051463;28;20398;-77
2022/08/24 02:08:51;;;;;;;7.55;2.17;;;21.10;82.30;;;;;;5033375;28;20051;-77
2022/08/24 02:11:17;;;;;;;6.55;2.45;;;21.00;82.40;;;;;;5043633;28;20025;-77
2022/08/24 02:13:43;;;;;;;4.05;1.85;;;20.90;83.20;;;;;;5039545;28;20025;-78
2022/08/24 02:16:09;;;;;;;4.18;1.70;;;20.90;83.50;;;;;;5037879;28;20103;-78
2022/08/24 02:18:39;;;;;;;7.47;2.47;;;20.90;83.70;;;;;;5054786;28;20083;-78
2022/08/24 02:21:07;;;;;;;3.60;1.95;;;20.90;84.00;;;;;;5035011;28;20381;-77
2022/08/24 02:23:34;;;;;;;6.05;1.98;;;20.90;84.10;;;;;;5036228;28;20062;-79
2022/08/24 02:26:01;;;;;;;4.95;2.35;;;20.90;84.40;;;;;;5030828;28;20035;-76
2022/08/24 02:28:27;;;;;;;3.67;1.80;;;20.90;84.70;;;;;;5018426;28;20055;-78
2022/08/24 02:30:54;;;;;;;4.65;2.28;;;20.90;84.90;;;;;;5056447;28;20021;-79
2022/08/24 02:33:22;;;;;;;5.00;2.28;;;20.90;85.20;;;;;;5036171;28;20037;-78
2022/08/24 02:35:49;;;;;;;4.00;1.80;;;20.90;85.30;;;;;;5032864;28;20025;-77
2022/08/24 02:38:15;;;;;;;3.97;2.15;;;20.90;85.70;;;;;;5033161;28;20110;-78
2022/08/24 02:40:42;;;;;;;3.58;1.83;;;20.80;86.30;;;;;;5054023;28;20041;-78
2022/08/24 02:43:08;;;;;;;5.78;2.28;;;20.80;86.60;;;;;;5055416;28;20028;-78
2022/08/24 02:45:42;;;;;;;8.23;2.45;;;20.80;87.20;;;;;;5035109;28;20393;-78
2022/08/24 02:48:10;;;;;;;6.28;2.00;;;20.80;87.50;;;;;;5053422;28;20559;-78
2022/08/24 02:50:44;;;;;;;5.32;2.30;;;20.70;87.90;;;;;;5037006;28;20024;-77
2022/08/24 02:53:12;;;;;;;4.40;1.95;;;20.70;88.00;;;;;;5038499;28;20032;-78
2022/08/24 02:55:40;;;;;;;5.45;1.70;;;20.70;88.70;;;;;;5035247;28;20045;-79
2022/08/24 02:58:07;;;;;;;4.70;2.30;;;20.70;89.00;;;;;;5037648;28;20932;-79
2022/08/24 03:00:32;;;;;;;7.20;2.33;;;20.70;89.70;;;;;;5036182;28;20036;-78
2022/08/24 03:02:58;;;;;;;5.70;2.05;;;20.60;89.80;;;;;;5051920;28;20033;-77
2022/08/24 03:05:24;;;;;;;3.67;2.00;;;20.60;90.30;;;;;;5034461;28;20274;-78
2022/08/24 03:07:51;;;;;;;4.43;2.40;;;20.60;90.50;;;;;;5035966;28;20082;-76
2022/08/24 03:10:17;;;;;;;5.43;2.30;;;20.60;90.70;;;;;;5052917;28;20028;-78
2022/08/24 03:12:43;;;;;;;4.13;2.05;;;20.60;90.90;;;;;;5051924;28;20031;-78
2022/08/24 03:15:10;;;;;;;3.95;1.92;;;20.50;91.10;;;;;;5050488;28;20109;-77
2022/08/24 03:17:37;;;;;;;5.22;3.00;;;20.50;91.30;;;;;;5033647;28;20135;-78
2022/08/24 03:20:06;;;;;;;5.88;2.28;;;20.50;91.50;;;;;;5032892;28;20052;-78
2022/08/24 03:22:32;;;;;;;4.90;2.30;;;20.50;91.50;;;;;;5052336;28;20501;-77
2022/08/24 03:24:58;;;;;;;4.05;2.22;;;20.50;91.80;;;;;;5054309;28;20033;-78
2022/08/24 03:27:25;;;;;;;5.50;2.30;;;20.50;92.10;;;;;;5033941;28;20041;-78
2022/08/24 03:29:51;;;;;;;7.15;2.38;;;20.50;92.60;;;;;;5054450;28;20025;-78
2022/08/24 03:32:16;;;;;;;3.55;2.30;;;20.40;92.60;;;;;;5021042;28;20108;-78
2022/08/24 03:34:42;;;;;;;5.25;2.55;;;20.40;92.80;;;;;;5060080;28;20060;-78
2022/08/24 03:37:08;;;;;;;6.55;2.05;;;20.40;92.90;;;;;;5037533;28;20037;-77
2022/08/24 03:39:34;;;;;;;5.93;2.13;;;20.30;93.30;;;;;;5055857;28;20047;-77
2022/08/24 03:42:00;;;;;;;5.15;2.35;;;20.30;93.60;;;;;;5046709;28;20085;-77
2022/08/24 03:44:26;;;;;;;6.40;2.60;;;20.30;93.70;;;;;;5037922;28;20044;-76
2022/08/24 03:46:52;;;;;;;3.85;2.05;;;20.30;93.70;;;;;;5032770;28;20090;-78
2022/08/24 03:49:19;;;;;;;4.55;1.98;;;20.30;94.10;;;;;;5050570;28;20092;-77
2022/08/24 03:51:45;;;;;;;6.93;2.00;;;20.30;94.40;;;;;;5032127;28;20036;-78
2022/08/24 03:54:12;;;;;;;6.47;2.35;;;20.30;94.70;;;;;;5016055;28;20182;-77
2022/08/24 03:56:38;;;;;;;4.28;2.15;;;20.30;94.80;;;;;;5040425;28;20563;-77
2022/08/24 03:59:05;;;;;;;7.63;2.70;;;20.30;95.10;;;;;;5040080;28;20037;-78
2022/08/24 04:01:30;;;;;;;6.90;2.13;;;20.20;95.50;;;;;;5035583;28;20033;-78
2022/08/24 04:03:56;;;;;;;3.95;2.50;;;20.20;95.80;;;;;;5034018;28;21207;-78
2022/08/24 04:06:22;;;;;;;5.60;2.20;;;20.20;96.20;;;;;;5053738;28;20037;-77
2022/08/24 04:08:50;;;;;;;6.30;2.55;;;20.10;96.40;;;;;;5048775;28;20033;-77
2022/08/24 04:11:20;;;;;;;5.10;2.22;;;20.10;96.70;;;;;;5052141;28;20401;-78
2022/08/24 04:13:46;;;;;;;8.43;2.90;;;20.10;96.90;;;;;;5031727;28;20511;-77
2022/08/24 04:16:16;;;;;;;5.07;2.40;;;20.10;97.10;;;;;;5030722;28;20113;-78
2022/08/24 04:18:43;;;;;;;4.35;2.47;;;20.10;97.40;;;;;;5015421;28;20125;-77
2022/08/24 04:21:21;;;;;;;2.80;2.10;;;20.10;97.90;;;;;;5034219;28;20041;-77
2022/08/24 04:23:47;;;;;;;5.82;2.50;;;20.20;98.10;;;;;;5033962;28;20559;-78
2022/08/24 04:26:14;;;;;;;5.78;2.47;;;20.40;97.80;;;;;;5054882;28;20170;-77
2022/08/24 04:28:40;;;;;;;6.35;2.67;;;20.30;98.10;;;;;;5035758;28;20033;-78
2022/08/24 04:31:05;;;;;;;4.65;2.35;;;20.10;98.60;;;;;;5035446;28;20083;-78
2022/08/24 04:33:32;;;;;;;4.22;2.53;;;20.10;98.90;;;;;;5036363;28;20389;-78
2022/08/24 04:35:58;;;;;;;7.18;2.60;;;20.10;99.10;;;;;;5020398;28;20029;-77
2022/08/24 04:38:24;;;;;;;6.97;2.85;;;20.10;99.40;;;;;;5019803;28;20029;-78
2022/08/24 04:40:49;;;;;;;6.13;2.78;;;20.00;99.90;;;;;;5034064;28;20397;-78
2022/08/24 04:43:16;;;;;;;8.35;3.47;;;20.10;99.90;;;;;;5035303;28;20044;-76
2022/08/24 04:45:44;;;;;;;6.32;2.60;;;20.10;99.90;;;;;;5051865;28;20104;-78
2022/08/24 04:48:11;;;;;;;8.07;2.72;;;20.10;99.90;;;;;;5057706;28;20078;-78
2022/08/24 04:50:38;;;;;;;5.40;2.75;;;20.00;99.90;;;;;;5028519;28;20048;-76
2022/08/24 04:53:06;;;;;;;6.53;2.45;;;20.00;99.90;;;;;;5049667;28;20290;-76
2022/08/24 04:55:40;;;;;;;5.63;2.70;;;20.00;99.90;;;;;;5053598;28;20032;-77
2022/08/24 04:58:06;;;;;;;4.05;2.38;;;20.00;99.90;;;;;;5070905;28;20105;-77
2022/08/24 05:00:32;;;;;;;5.63;2.30;;;20.00;99.90;;;;;;5044114;28;20024;-78
2022/08/24 05:02:57;;;;;;;7.70;2.80;;;20.00;99.90;;;;;;5038638;28;20064;-77
2022/08/24 05:05:23;;;;;;;6.70;2.83;;;20.00;99.90;;;;;;5037357;28;20116;-77
2022/08/24 05:07:49;;;;;;;7.72;3.25;;;20.00;99.90;;;;;;5034476;28;20032;-78
2022/08/24 05:10:15;;;;;;;11.63;3.33;;;20.10;99.90;;;;;;5029536;28;20083;-73
2022/08/24 05:12:41;;;;;;;7.15;3.15;;;20.10;99.90;;;;;;5027775;28;20071;-76
2022/08/24 05:15:08;;;;;;;10.40;2.97;;;20.10;99.90;;;;;;5026039;28;20108;-74
2022/08/24 05:17:34;;;;;;;6.30;2.83;;;20.10;99.90;;;;;;5029883;28;20112;-73
2022/08/24 05:19:59;;;;;;;7.22;2.58;;;20.00;99.90;;;;;;5046391;28;20121;-72
2022/08/24 05:22:25;;;;;;;5.68;2.40;;;20.10;99.90;;;;;;5038979;28;20032;-73
2022/08/24 05:24:51;;;;;;;6.20;3.10;;;20.10;99.90;;;;;;5032020;28;20032;-73
2022/08/24 05:27:18;;;;;;;6.40;2.90;;;20.10;99.90;;;;;;5026308;28;20051;-73
2022/08/24 05:29:44;;;;;;;5.95;3.08;;;20.10;99.90;;;;;;5040616;28;20088;-73
2022/08/24 05:32:10;;;;;;;11.00;4.03;;;20.10;99.90;;;;;;4974015;28;1629256;-76
2022/08/24 05:34:37;;;;;;;5.57;2.85;;;20.20;99.90;;;;;;5015858;28;20503;-72
2022/08/24 05:37:03;;;;;;;6.15;2.92;;;20.20;99.90;;;;;;5046402;28;20033;-73
2022/08/24 05:39:30;;;;;;;5.07;2.63;;;20.20;99.90;;;;;;5030315;28;20043;-73
2022/08/24 05:41:58;;;;;;;4.63;2.80;;;20.20;99.90;;;;;;5027711;28;20300;-71
2022/08/24 05:44:25;;;;;;;9.10;3.63;;;20.20;99.90;;;;;;5028662;28;20025;-73
2022/08/24 05:46:51;;;;;;;7.25;3.42;;;20.20;99.90;;;;;;5046489;28;20036;-74
2022/08/24 05:49:17;;;;;;;5.03;2.60;;;20.20;99.90;;;;;;5043713;28;20594;-72
2022/08/24 05:51:43;;;;;;;8.45;3.25;;;20.30;99.90;;;;;;5045332;28;20033;-74
2022/08/24 05:54:10;;;;;;;7.15;3.00;;;20.30;99.90;;;;;;5039422;28;20021;-73
2022/08/24 05:56:36;;;;;;;9.27;2.90;;;20.30;99.90;;;;;;5031620;28;20451;-74
2022/08/24 05:59:01;;;;;;;10.18;3.17;;;20.30;99.90;;;;;;5025622;28;20108;-74
2022/08/24 06:01:28;;;;;;;8.95;2.90;;;20.40;99.90;;;;;;5034170;28;21002;-73
2022/08/24 06:03:55;;;;;;;9.23;3.60;;;20.40;99.90;;;;;;5040794;28;20025;-73
2022/08/24 06:06:22;;;;;;;5.35;2.80;;;20.40;99.90;;;;;;5046660;28;20017;-72
2022/08/24 06:08:51;;;;;;;5.45;2.78;;;20.40;99.90;;;;;;5042973;28;20409;-73
2022/08/24 06:11:23;;;;;;;9.20;2.80;;;20.50;99.90;;;;;;5033162;28;20059;-72
2022/08/24 06:13:56;;;;;;;7.03;2.75;;;20.50;99.90;;;;;;5048300;28;20024;-73
2022/08/24 06:16:22;;;;;;;5.10;2.67;;;20.50;99.90;;;;;;5046851;28;20497;-72
2022/08/24 06:18:50;;;;;;;6.43;2.70;;;20.60;99.90;;;;;;5045874;28;20044;-72
2022/08/24 06:21:20;;;;;;;8.10;3.33;;;20.60;99.90;;;;;;5044279;28;20032;-74
2022/08/24 06:23:45;;;;;;;5.50;3.08;;;20.50;99.90;;;;;;5049354;28;20516;-76
2022/08/24 06:28:57;;;;;;;5.43;2.30;;;20.90;99.90;;;;;;5047314;28;20128;-76
2022/08/24 06:31:23;;;;;;;5.30;2.45;;;21.10;99.90;;;;;;5027729;28;20028;-72
2022/08/24 06:33:49;;;;;;;9.45;3.15;;;21.30;99.90;;;;;;5028228;28;20647;-77
2022/08/24 06:36:15;;;;;;;5.80;2.17;;;21.30;99.90;;;;;;5039031;28;20068;-76
2022/08/24 06:38:42;;;;;;;7.32;2.47;;;21.40;99.90;;;;;;5051458;28;20036;-77
2022/08/24 06:41:08;;;;;;;10.35;3.13;;;21.30;99.90;;;;;;5030130;28;20112;-77
2022/08/24 06:43:35;;;;;;;13.10;4.25;;;21.30;99.90;;;;;;5033305;28;20041;-78
2022/08/24 06:46:01;;;;;;;10.10;2.95;;;21.30;99.90;;;;;;5032186;28;20562;-78
2022/08/24 06:48:27;;;;;;;14.95;3.38;;;21.20;99.90;;;;;;5014877;28;20078;-77
2022/08/24 06:50:53;;;;;;;6.47;3.20;;;21.20;99.90;;;;;;5029200;28;20033;-77
2022/08/24 06:53:19;;;;;;;7.93;3.15;;;21.20;99.90;;;;;;5030804;28;20031;-77
2022/08/24 06:55:50;;;;;;;6.10;2.70;;;21.10;99.90;;;;;;5040872;28;20144;-76
2022/08/24 06:58:17;;;;;;;7.80;2.88;;;21.20;99.90;;;;;;5014755;28;20029;-77
2022/08/24 07:00:43;;;;;;;5.80;3.20;;;21.20;99.90;;;;;;5029613;28;20060;-77
2022/08/24 07:03:09;;;;;;;6.28;3.35;;;21.20;99.90;;;;;;5051434;28;20029;-76
2022/08/24 07:05:35;;;;;;;5.43;2.58;;;21.20;99.90;;;;;;5031147;28;20489;-77
2022/08/24 07:08:02;;;;;;;7.45;2.90;;;21.20;99.90;;;;;;5049438;28;20033;-78
2022/08/24 07:10:29;;;;;;;10.45;3.60;;;21.20;99.90;;;;;;5052016;28;20055;-78
2022/08/24 07:12:55;;;;;;;6.05;3.10;;;21.30;99.90;;;;;;5053317;28;20036;-78
2022/08/24 07:15:22;;;;;;;11.05;3.30;;;21.30;99.90;;;;;;5032084;28;20443;-78
2022/08/24 07:17:48;;;;;;;9.35;3.83;;;21.40;99.90;;;;;;5016210;28;20028;-78
2022/08/24 07:20:13;;;;;;;5.25;2.92;;;21.40;99.90;;;;;;5033193;28;20374;-78
2022/08/24 07:22:39;;;;;;;10.93;3.65;;;21.40;99.90;;;;;;5015476;28;20485;-76
2022/08/24 07:25:05;;;;;;;6.88;2.75;;;21.50;99.90;;;;;;5030293;28;21735;-77
2022/08/24 07:27:32;;;;;;;6.88;3.75;;;21.50;99.90;;;;;;5048426;28;20029;-76
2022/08/24 07:29:58;;;;;;;6.35;3.20;;;21.50;99.90;;;;;;5048667;28;20472;-77
2022/08/24 07:32:24;;;;;;;9.63;3.60;;;21.60;99.90;;;;;;5032644;28;20029;-77
2022/08/24 07:34:49;;;;;;;8.20;3.55;;;21.60;99.90;;;;;;5038437;28;20051;-77
2022/08/24 07:37:15;;;;;;;10.10;3.13;;;21.60;99.90;;;;;;5050145;28;20032;-77
2022/08/24 07:39:41;;;;;;;5.47;3.40;;;21.70;99.90;;;;;;5049457;28;20036;-77
2022/08/24 07:42:07;;;;;;;5.13;3.22;;;21.70;99.90;;;;;;5030322;28;20039;-76
2022/08/24 07:44:34;;;;;;;7.30;3.72;;;21.70;99.90;;;;;;5015333;28;20699;-77
2022/08/24 07:47:00;;;;;;;8.20;3.50;;;21.80;99.90;;;;;;5016793;28;20563;-76
2022/08/24 07:49:26;;;;;;;7.35;3.03;;;21.80;99.90;;;;;;5033603;28;20025;-77
2022/08/24 07:51:52;;;;;;;5.75;3.00;;;21.90;99.90;;;;;;5052296;28;20025;-77
2022/08/24 07:54:19;;;;;;;6.80;3.55;;;21.90;99.90;;;;;;5043285;28;20105;-77
2022/08/24 07:56:45;;;;;;;6.30;3.88;;;22.00;99.90;;;;;;5042517;28;21949;-77
2022/08/24 07:59:11;;;;;;;7.63;3.50;;;22.00;99.90;;;;;;5042849;28;20024;-77
2022/08/24 08:01:37;;;;;;;8.23;3.10;;;22.10;99.90;;;;;;5030360;28;20029;-77
2022/08/24 08:04:04;;;;;;;8.45;4.00;;;22.10;99.90;;;;;;5039262;28;20032;-77
2022/08/24 08:06:30;;;;;;;8.27;3.72;;;22.10;99.90;;;;;;5036034;28;20021;-77
2022/08/24 08:08:55;;;;;;;8.70;3.42;;;22.20;99.90;;;;;;5051188;28;20603;-77
2022/08/24 08:11:21;;;;;;;10.98;3.72;;;22.30;99.90;;;;;;5034424;28;20100;-77
2022/08/24 08:13:47;;;;;;;7.40;3.15;;;22.30;99.90;;;;;;5050321;28;20049;-77
2022/08/24 08:16:14;;;;;;;6.38;2.92;;;22.30;99.90;;;;;;5017910;28;20021;-78
2022/08/24 08:18:40;;;;;;;8.05;2.95;;;22.40;99.90;;;;;;5018380;28;20463;-77
2022/08/24 08:24:13;;;;;;;5.63;3.33;;;22.40;99.90;;;;;;5034046;28;20033;-77
2022/08/24 08:26:40;;;;;;;7.30;3.42;;;22.60;99.90;;;;;;5038877;28;20120;-77
2022/08/24 08:29:07;;;;;;;9.23;3.50;;;22.70;99.90;;;;;;5052272;28;20033;-77
2022/08/24 08:31:33;;;;;;;9.30;3.25;;;22.70;99.90;;;;;;5019680;28;20575;-77
2022/08/24 08:33:58;;;;;;;6.82;3.83;;;22.80;99.90;;;;;;5033957;28;20029;-77
2022/08/24 08:36:25;;;;;;;5.85;3.33;;;22.80;99.90;;;;;;5034814;28;20040;-77
2022/08/24 08:38:51;;;;;;;5.45;2.95;;;22.90;99.90;;;;;;5018219;28;20037;-77
2022/08/24 08:41:20;;;;;;;7.40;3.15;;;22.90;99.90;;;;;;5014157;28;20457;-77
2022/08/24 08:44:03;;;;;;;8.48;3.45;;;23.00;99.90;;;;;;5049308;28;20112;-78
2022/08/24 08:46:51;;;;;;;7.60;3.22;;;23.10;99.90;;;;;;5031257;28;20025;-77
2022/08/24 08:49:52;;;;;;;7.53;3.50;;;23.10;99.90;;;;;;5049679;28;20079;-77
2022/08/24 08:52:25;;;;;;;8.02;3.35;;;23.10;99.90;;;;;;5030734;28;20021;-77
2022/08/24 08:55:01;;;;;;;5.43;2.97;;;23.10;99.90;;;;;;5049365;28;20044;-77
2022/08/24 08:58:04;;;;;;;9.82;3.55;;;23.20;99.90;;;;;;5031726;28;20159;-77
2022/08/24 09:01:08;;;;;;;6.93;2.83;;;23.30;99.90;;;;;;5014414;28;20048;-77
2022/08/24 09:03:59;;;;;;;10.30;3.30;;;23.30;99.90;;;;;;4982725;28;20509;-77
2022/08/24 09:06:34;;;;;;;;;;;23.40;99.90;;;;;;5032174;28;20084;-77
2022/08/24 09:09:06;;;;;;;7.85;3.58;;;23.50;99.90;;;;;;5029072;28;19942;-76
2022/08/24 09:11:50;;;;;;;6.97;3.00;;;23.50;99.90;;;;;;5033569;28;20040;-76
2022/08/24 09:14:39;;;;;;;6.70;3.03;;;23.60;99.90;;;;;;5033238;28;20028;-77
2022/08/24 09:17:39;;;;;;;6.07;2.90;;;23.70;99.80;;;;;;5034217;28;20036;-77
2022/08/24 09:20:16;;;;;;;5.03;2.88;;;23.80;99.50;;;;;;5030265;28;20123;-77
2022/08/24 09:22:48;;;;;;;6.30;2.97;;;23.90;99.40;;;;;;5037336;28;20044;-77
2022/08/24 09:25:30;;;;;;;9.55;3.47;;;23.90;98.70;;;;;;5035620;28;20048;-77
2022/08/24 09:28:14;;;;;;;5.50;2.75;;;23.90;98.50;;;;;;5052390;28;20037;-76
2022/08/24 09:30:56;;;;;;;6.88;3.60;;;23.90;98.50;;;;;;5017497;28;20124;-78
2022/08/24 09:33:48;;;;;;;7.50;3.10;;;24.00;98.60;;;;;;5034034;28;20017;-77
2022/08/24 09:36:31;;;;;;;6.50;2.70;;;24.00;98.20;;;;;;5030482;28;20063;-77
2022/08/24 09:39:16;;;;;;;5.40;3.28;;;24.10;98.20;;;;;;5055309;28;20087;-77
2022/08/24 09:41:45;;;;;;;5.45;2.85;;;24.10;98.30;;;;;;5056230;28;20094;-77
2022/08/24 09:44:30;;;;;;;7.15;3.15;;;24.10;98.30;;;;;;5037378;28;20075;-78
2022/08/24 09:47:10;;;;;;;9.30;3.58;;;24.20;98.30;;;;;;5035330;28;20037;-78
2022/08/24 09:49:54;;;;;;;8.98;3.35;;;24.20;97.60;;;;;;5053557;28;20017;-77
2022/08/24 09:52:41;;;;;;;5.40;2.90;;;24.20;97.40;;;;;;5022824;28;20025;-77
2022/08/24 09:55:36;;;;;;;6.40;3.35;;;24.30;97.40;;;;;;5036714;28;20079;-77
2022/08/24 09:58:29;;;;;;;9.32;3.10;;;24.40;97.50;;;;;;4968492;28;20043;-77
2022/08/24 10:01:01;;;;;;;9.07;3.05;;;24.40;97.30;;;;;;5055875;28;20082;-77
2022/08/24 10:03:57;;;;;;;7.75;2.63;;;24.50;97.40;;;;;;5047202;28;20033;-77
2022/08/24 10:06:52;;;;;;;7.97;3.00;;;24.50;97.30;;;;;;5041589;28;20142;-77
2022/08/24 10:09:51;;;;;;;8.32;3.15;;;24.60;97.40;;;;;;5055637;28;20056;-78
2022/08/24 10:12:20;;;;;;;5.65;3.15;;;24.60;96.60;;;;;;5054313;28;20510;-78
2022/08/24 10:15:24;;;;;;;7.82;3.17;;;24.60;96.50;;;;;;5039350;28;20021;-77
2022/08/24 10:18:02;;;;;;;8.75;2.67;;;24.60;96.40;;;;;;4987668;28;20037;-77
2022/08/24 10:20:44;;;;;;;6.50;2.63;;;24.70;95.70;;;;;;5054266;28;20040;-77
2022/08/24 10:23:35;;;;;;;5.95;2.30;;;24.70;95.50;;;;;;5054176;28;20025;-77
2022/08/24 10:26:19;;;;;;;5.35;2.70;;;24.70;95.30;;;;;;5036873;28;20024;-77
2022/08/24 10:29:01;;;;;;;6.53;2.58;;;24.80;94.90;;;;;;5037340;28;20025;-78
2022/08/24 10:31:39;;;;;;;6.65;2.60;;;24.80;94.80;;;;;;5054170;28;20056;-79
2022/08/24 10:34:23;;;;;;;5.50;3.03;;;24.90;93.90;;;;;;5018120;28;20040;-77
2022/08/24 10:37:09;;;;;;;5.78;2.55;;;24.90;94.80;;;;;;5036086;28;20040;-78
2022/08/24 10:40:00;;;;;;;6.25;2.67;;;24.90;94.10;;;;;;5035970;28;20036;-77
2022/08/24 10:45:38;;;;;;;;;;;25.00;93.90;;;;;;5065063;28;20146;-77
2022/08/24 10:48:16;;;;;;;3.97;2.33;;;25.00;94.20;;;;;;5042375;28;19920;-78
2022/08/24 10:51:00;;;;;;;3.88;2.22;;;25.00;94.20;;;;;;5034413;28;20079;-77
2022/08/24 10:53:29;;;;;;;5.38;2.65;;;25.10;94.00;;;;;;5055061;28;20504;-78
2022/08/24 10:56:12;;;;;;;4.25;2.30;;;25.10;94.00;;;;;;5018065;28;20040;-78
2022/08/24 10:58:46;;;;;;;5.10;2.20;;;25.20;93.40;;;;;;5053105;28;20045;-78
2022/08/24 11:01:12;;;;;;;3.90;2.13;;;25.20;91.80;;;;;;5036558;28;20056;-78
2022/08/24 11:03:55;;;;;;;6.90;2.38;;;25.30;91.60;;;;;;5036618;28;20048;-78
2022/08/24 11:06:23;;;;;;;6.60;2.33;;;25.30;91.30;;;;;;5019081;28;20045;-76
2022/08/24 11:09:03;;;;;;;5.72;3.60;;;25.30;90.30;;;;;;5021790;28;20128;-76
2022/08/24 11:11:38;;;;;;;5.88;1.98;;;25.40;90.30;;;;;;5056494;28;20025;-77
2022/08/24 11:14:15;;;;;;;7.03;3.10;;;25.50;90.70;;;;;;5036853;28;20032;-78
2022/08/24 11:16:43;;;;;;;6.35;2.53;;;25.60;90.70;;;;;;5053711;28;20029;-76
2022/08/24 11:19:25;;;;;;;4.25;2.25;;;25.70;91.20;;;;;;5049219;28;20083;-78
2022/08/24 11:21:53;;;;;;;4.00;2.30;;;25.80;89.00;;;;;;5035955;28;20033;-77
2022/08/24 11:24:25;;;;;;;5.93;2.25;;;25.90;88.80;;;;;;5033055;28;20035;-78
2022/08/24 11:27:00;;;;;;;5.68;2.13;;;25.90;87.80;;;;;;5042611;28;20433;-78
2022/08/24 11:29:53;;;;;;;4.35;2.35;;;26.00;87.50;;;;;;5035041;28;20032;-78
2022/08/24 11:32:31;;;;;;;4.50;2.38;;;26.00;87.10;;;;;;5031555;28;20045;-77
2022/08/24 11:35:07;;;;;;;5.85;2.10;;;26.10;87.20;;;;;;5051852;28;20032;-77
2022/08/24 11:37:36;;;;;;;3.63;2.00;;;26.30;85.10;;;;;;5034958;28;20523;-77
2022/08/24 11:40:04;;;;;;;9.70;2.05;;;26.40;85.60;;;;;;5051087;28;20393;-77
2022/08/24 11:43:08;;;;;;;3.28;1.95;;;26.50;84.00;;;;;;5052541;28;20032;-78
2022/08/24 11:45:48;;;;;;;5.07;2.28;;;26.70;85.00;;;;;;5048690;28;20163;-77
2022/08/24 11:48:47;;;;;;;4.77;2.00;;;26.90;83.20;;;;;;5055263;28;20032;-77
2022/08/24 11:51:27;;;;;;;5.10;2.03;;;27.10;81.90;;;;;;5030983;28;20475;-77
2022/08/24 11:54:30;;;;;;;3.20;2.03;;;27.40;80.30;;;;;;5012753;28;20477;-77
2022/08/24 11:57:18;;;;;;;4.65;2.58;;;27.50;80.10;;;;;;5047812;28;20124;-77
2022/08/24 12:00:08;;;;;;;4.78;2.10;;;27.70;80.30;;;;;;5048962;28;20481;-77
2022/08/24 12:02:51;;;;;;;5.10;2.30;;;27.90;79.10;;;;;;5030230;28;20021;-76
2022/08/24 12:05:38;;;;;;;4.45;2.30;;;28.30;79.10;;;;;;5038037;28;20021;-78
2022/08/24 12:08:39;;;;;;;3.72;2.30;;;28.90;72.80;;;;;;5020544;28;20036;-78
2022/08/24 12:11:35;;;;;;;4.47;1.70;;;29.40;71.60;;;;;;5004348;28;20051;-78
2022/08/24 12:14:15;;;;;;;4.18;2.08;;;29.80;69.40;;;;;;5053530;28;20029;-78
2022/08/24 12:16:49;;;;;;;;;;;30.20;68.00;;;;;;5019534;28;20036;-77
2022/08/24 12:19:20;;;;;;;5.28;2.53;;;30.50;69.90;;;;;;5029754;28;19916;-78
2022/08/24 12:21:51;;;;;;;3.42;2.00;;;31.10;69.40;;;;;;5050251;28;20078;-77
2022/08/24 12:24:39;;;;;;;4.03;1.80;;;31.70;67.00;;;;;;5028871;28;20063;-77
2022/08/24 12:27:38;;;;;;;5.85;2.20;;;32.00;65.50;;;;;;5049716;28;20036;-78
2022/08/24 12:30:14;;;;;;;5.07;2.70;;;32.20;63.40;;;;;;4995125;28;20102;-78
2022/08/24 12:33:00;;;;;;;6.03;2.38;;;32.40;63.40;;;;;;5050626;28;20037;-77
2022/08/24 12:35:32;;;;;;;6.10;2.60;;;32.60;63.40;;;;;;5031969;28;20075;-77
2022/08/24 12:38:13;;;;;;;2.38;2.05;;;32.90;62.10;;;;;;5041979;28;20043;-77
2022/08/24 12:40:41;;;;;;;5.28;2.25;;;33.20;62.20;;;;;;5051946;28;20048;-78
2022/08/24 12:43:30;;;;;;;5.47;2.20;;;33.80;59.80;;;;;;5032225;28;20078;-78
2022/08/24 12:46:00;;;;;;;5.05;1.90;;;34.20;58.20;;;;;;5006989;28;20512;-78
2022/08/24 12:48:43;;;;;;;5.63;2.20;;;34.50;56.40;;;;;;5035979;28;20037;-77
2022/08/24 12:51:33;;;;;;;7.20;2.20;;;34.80;55.90;;;;;;5053895;28;20041;-77
2022/08/24 12:54:24;;;;;;;12.38;2.75;;;35.20;56.00;;;;;;5052612;28;20056;-77
2022/08/24 12:57:02;;;;;;;7.32;2.53;;;35.60;54.10;;;;;;5036121;28;20025;-77
2022/08/24 12:59:50;;;;;;;4.30;2.15;;;35.80;54.40;;;;;;5033902;28;20029;-78
2022/08/24 13:02:17;;;;;;;5.72;2.63;;;36.00;53.40;;;;;;5035375;28;20071;-78
2022/08/24 13:04:48;;;;;;;6.97;2.30;;;36.00;53.00;;;;;;5055169;28;20017;-77
2022/08/24 13:07:17;;;;;;;4.45;2.30;;;36.60;51.30;;;;;;5033931;28;20094;-77
2022/08/24 13:09:52;;;;;;;4.45;2.58;;;36.90;51.40;;;;;;5027505;28;20117;-78
2022/08/24 13:12:40;;;;;;;5.43;2.30;;;37.10;49.00;;;;;;5040650;28;20021;-77
2022/08/24 13:15:30;;;;;;;4.75;1.90;;;37.00;49.00;;;;;;5019659;28;20112;-77
2022/08/24 13:18:20;;;;;;;6.88;2.20;;;36.90;49.20;;;;;;5037359;28;20097;-77
2022/08/24 13:20:46;;;;;;;3.70;2.25;;;37.10;47.40;;;;;;5022483;28;20041;-77
2022/08/24 13:23:12;;;;;;;3.92;2.38;;;37.40;47.90;;;;;;5040388;28;20040;-75